Esko, Minnesota
Current Conditions -  °F | °C
As of 5:17 PM on Friday 19 Dec 2014 (Local Time) from KCOQ Reporting Station
Overcast Overcast  
Wind Chill: 25°   Ceiling: 1400
Heat Index: 25°   Visibility: 7mi
Dew Point: 21°   Wind: 3mph
Humidity: 86%   Direction: 130°SE
Pressure: 30.16"   Gusts: NA
Location:  46.71°N, 92.36°W
Report Text: KCOQ 192317Z AUTO 13003KT 7SM OVC014 M04/M06 A3016 RMK AO2
Loading
Personal Weather Stations






























Interactive Weather Map New forecast layout! Learn more

10-Day Weather Forecast

Advertisements
Track Severe Weather on mobile